Time;durP1;ratioP1;P1;durP2;ratioP2;P2;SDS_P1;SDS_P2;PMS_P1;PMS_P2;Temp;Humidity;BMP_temperature;BMP_pressure;BME280_temperature;BME280_humidity;BME280_pressure;Samples;Min_cycle;Max_cycle;Signal;HPM_P1;HPM_P2
2023/09/04 00:01:29;;;;;;;14.77;10.10;;;;;;;;;;5071363;28;20056;-75
2023/09/04 00:03:55;;;;;;;12.48;8.23;;;;;;;;;;5071339;28;20490;-76
2023/09/04 00:06:21;;;;;;;14.85;10.20;;;;;;;;;;5071273;28;20021;-75
2023/09/04 00:08:47;;;;;;;15.85;10.07;;;;;;;;;;5071055;28;20051;-75
2023/09/04 00:11:13;;;;;;;12.50;9.50;;;;;;;;;;5038124;28;20061;-76
2023/09/04 00:13:41;;;;;;;12.70;8.85;;;;;;;;;;5051292;28;20029;-75
2023/09/04 00:16:07;;;;;;;11.30;8.38;;;;;;;;;;5051044;28;20029;-75
2023/09/04 00:18:32;;;;;;;11.88;8.57;;;;;;;;;;5050914;28;20032;-75
2023/09/04 00:20:58;;;;;;;10.38;7.63;;;;;;;;;;5050917;28;20029;-76
2023/09/04 00:23:24;;;;;;;9.90;7.57;;;;;;;;;;5051242;28;20106;-75
2023/09/04 00:25:50;;;;;;;11.27;7.70;;;;;;;;;;5050907;28;20649;-75
2023/09/04 00:28:18;;;;;;;10.07;7.72;;;;;;;;;;5051242;28;20032;-75
2023/09/04 00:30:44;;;;;;;10.82;7.32;;;;;;;;;;5031227;28;20032;-75
2023/09/04 00:33:10;;;;;;;10.95;7.68;;;;;;;;;;5030996;28;20079;-75
2023/09/04 00:35:36;;;;;;;11.40;8.18;;;;;;;;;;5038036;28;20025;-75
2023/09/04 00:38:02;;;;;;;10.15;6.80;;;;;;;;;;5050648;28;20036;-75
2023/09/04 00:40:28;;;;;;;11.27;7.97;;;;;;;;;;5051162;28;20032;-75
2023/09/04 00:42:54;;;;;;;14.93;8.68;;;;;;;;;;5050461;28;20109;-75
2023/09/04 00:45:20;;;;;;;15.70;9.25;;;;;;;;;;5051346;28;20519;-75
2023/09/04 00:47:46;;;;;;;18.02;11.13;;;;;;;;;;5050643;28;20112;-76
2023/09/04 00:50:16;;;;;;;16.13;9.73;;;;;;;;;;5051124;28;20028;-75
2023/09/04 00:52:42;;;;;;;14.77;10.15;;;;;;;;;;5050710;28;20029;-76
2023/09/04 00:55:15;;;;;;;23.30;12.45;;;;;;;;;;5050877;28;20021;-75
2023/09/04 00:57:42;;;;;;;21.02;11.50;;;;;;;;;;5051055;28;20040;-75
2023/09/04 01:00:15;;;;;;;18.77;10.90;;;;;;;;;;5050350;28;20032;-76
2023/09/04 01:02:41;;;;;;;19.25;11.07;;;;;;;;;;5050687;28;20036;-75
2023/09/04 01:05:08;;;;;;;16.17;10.27;;;;;;;;;;5060035;28;20037;-76
2023/09/04 01:07:37;;;;;;;15.57;10.32;;;;;;;;;;5062580;28;20036;-75
2023/09/04 01:10:03;;;;;;;17.35;9.77;;;;;;;;;;5038767;28;20026;-75
2023/09/04 01:12:41;;;;;;;11.68;8.10;;;;;;;;;;5034164;28;20535;-76
2023/09/04 01:15:08;;;;;;;11.70;8.00;;;;;;;;;;5041043;28;20032;-75
2023/09/04 01:17:35;;;;;;;12.50;8.27;;;;;;;;;;5067145;28;20028;-75
2023/09/04 01:20:13;;;;;;;12.50;8.75;;;;;;;;;;5060215;28;20522;-75
2023/09/04 01:22:39;;;;;;;14.43;9.27;;;;;;;;;;5033938;28;20104;-75
2023/09/04 01:25:05;;;;;;;12.63;8.73;;;;;;;;;;5065638;28;20548;-75
2023/09/04 01:27:39;;;;;;;13.88;9.20;;;;;;;;;;5054023;28;20025;-75
2023/09/04 01:30:07;;;;;;;13.77;9.65;;;;;;;;;;5060327;28;20020;-76
2023/09/04 01:32:36;;;;;;;16.38;10.45;;;;;;;;;;5042757;28;20066;-75
2023/09/04 01:35:04;;;;;;;15.85;10.50;;;;;;;;;;5033881;28;20057;-75
2023/09/04 01:37:31;;;;;;;19.17;11.65;;;;;;;;;;5033970;28;20037;-76
2023/09/04 01:39:57;;;;;;;15.43;10.45;;;;;;;;;;5033735;28;20503;-76
2023/09/04 01:42:23;;;;;;;19.27;11.85;;;;;;;;;;5053534;28;20021;-76
2023/09/04 01:44:49;;;;;;;19.95;11.30;;;;;;;;;;5053801;28;20021;-75
2023/09/04 01:47:15;;;;;;;18.75;11.57;;;;;;;;;;5053463;28;20048;-76
2023/09/04 01:49:42;;;;;;;22.27;12.05;;;;;;;;;;5053553;28;20029;-75
2023/09/04 01:52:09;;;;;;;18.75;10.95;;;;;;;;;;5053654;28;20025;-75
2023/09/04 01:54:35;;;;;;;17.23;11.02;;;;;;;;;;5053760;28;20025;-75
2023/09/04 01:57:01;;;;;;;15.43;10.60;;;;;;;;;;5053334;28;20659;-76
2023/09/04 01:59:27;;;;;;;17.25;10.40;;;;;;;;;;5053399;28;20785;-76
2023/09/04 02:01:53;;;;;;;20.58;11.60;;;;;;;;;;5053148;28;20025;-76
2023/09/04 02:04:19;;;;;;;18.40;11.13;;;;;;;;;;5035316;28;20036;-76
2023/09/04 02:06:45;;;;;;;19.52;11.05;;;;;;;;;;5053350;28;20025;-75
2023/09/04 02:09:11;;;;;;;19.70;12.00;;;;;;;;;;5053124;28;20040;-75
2023/09/04 02:11:37;;;;;;;19.60;11.40;;;;;;;;;;5053118;28;20129;-76
2023/09/04 02:14:04;;;;;;;17.92;10.63;;;;;;;;;;5053165;28;20468;-75
2023/09/04 02:16:30;;;;;;;17.70;10.70;;;;;;;;;;5073284;28;20017;-75
2023/09/04 02:18:56;;;;;;;14.40;10.00;;;;;;;;;;5059263;28;20045;-76
2023/09/04 02:21:22;;;;;;;13.25;9.18;;;;;;;;;;5051953;28;20456;-76
2023/09/04 02:23:48;;;;;;;13.52;9.15;;;;;;;;;;5053024;28;20542;-75
2023/09/04 02:26:14;;;;;;;13.93;9.35;;;;;;;;;;5052856;28;20056;-76
2023/09/04 02:28:40;;;;;;;13.50;9.55;;;;;;;;;;5052873;28;20040;-76
2023/09/04 02:31:06;;;;;;;14.93;9.60;;;;;;;;;;5052790;28;20025;-75
2023/09/04 02:33:33;;;;;;;15.13;9.23;;;;;;;;;;5034686;28;20079;-75
2023/09/04 02:35:59;;;;;;;12.43;8.75;;;;;;;;;;5052640;28;20484;-75
2023/09/04 02:38:25;;;;;;;17.33;9.82;;;;;;;;;;5052482;28;20025;-75
2023/09/04 02:40:51;;;;;;;17.33;10.18;;;;;;;;;;5052534;28;20109;-76
2023/09/04 02:43:17;;;;;;;15.98;9.98;;;;;;;;;;5052515;28;20033;-75
2023/09/04 02:45:43;;;;;;;14.57;9.15;;;;;;;;;;5052484;28;20156;-75
2023/09/04 02:48:09;;;;;;;16.02;9.68;;;;;;;;;;5052240;28;20039;-76
2023/09/04 02:50:35;;;;;;;17.42;10.50;;;;;;;;;;5052491;28;20460;-76
2023/09/04 02:53:01;;;;;;;15.30;10.40;;;;;;;;;;5052385;28;20033;-75
2023/09/04 02:55:27;;;;;;;15.55;10.20;;;;;;;;;;5052393;28;20136;-75
2023/09/04 02:57:53;;;;;;;15.73;9.82;;;;;;;;;;5052077;28;20024;-76
2023/09/04 03:00:19;;;;;;;18.05;10.32;;;;;;;;;;5051912;28;20029;-75
2023/09/04 03:02:45;;;;;;;14.13;9.43;;;;;;;;;;5052550;28;20029;-75
2023/09/04 03:05:11;;;;;;;12.80;8.98;;;;;;;;;;5052659;28;20052;-75
2023/09/04 03:07:38;;;;;;;12.05;9.30;;;;;;;;;;5052135;28;20021;-75
2023/09/04 03:10:04;;;;;;;16.08;10.48;;;;;;;;;;5052365;28;20271;-75
2023/09/04 03:12:31;;;;;;;14.07;9.38;;;;;;;;;;5066241;28;20020;-76
2023/09/04 03:14:57;;;;;;;13.32;9.00;;;;;;;;;;5057416;28;20024;-77
2023/09/04 03:17:24;;;;;;;14.23;8.88;;;;;;;;;;5058810;28;20467;-76
2023/09/04 03:19:51;;;;;;;12.95;8.73;;;;;;;;;;5050167;28;20044;-77
2023/09/04 03:22:17;;;;;;;13.00;8.90;;;;;;;;;;5057754;28;20021;-77
2023/09/04 03:24:43;;;;;;;14.15;8.88;;;;;;;;;;5051852;28;20036;-76
2023/09/04 03:27:09;;;;;;;13.50;9.23;;;;;;;;;;5037667;28;20520;-76
2023/09/04 03:29:35;;;;;;;11.05;8.05;;;;;;;;;;5046459;28;20113;-76
2023/09/04 03:32:01;;;;;;;12.55;7.93;;;;;;;;;;5070308;28;20029;-76
2023/09/04 03:34:29;;;;;;;13.40;7.45;;;;;;;;;;5051772;28;20032;-76
2023/09/04 03:36:55;;;;;;;11.10;7.22;;;;;;;;;;5051937;28;20021;-76
2023/09/04 03:39:21;;;;;;;9.05;6.28;;;;;;;;;;5051526;28;20021;-77
2023/09/04 03:41:48;;;;;;;9.00;6.50;;;;;;;;;;5051521;28;20025;-76
2023/09/04 03:44:17;;;;;;;10.10;7.28;;;;;;;;;;5051481;28;20037;-76
2023/09/04 03:46:43;;;;;;;8.90;6.80;;;;;;;;;;5051728;28;20423;-77
2023/09/04 03:49:09;;;;;;;10.90;6.45;;;;;;;;;;5051132;28;20036;-76
2023/09/04 03:51:35;;;;;;;10.45;6.85;;;;;;;;;;5051428;28;20033;-76
2023/09/04 03:54:02;;;;;;;9.25;6.43;;;;;;;;;;5051514;28;20079;-76
2023/09/04 03:56:31;;;;;;;10.18;6.90;;;;;;;;;;5051724;28;20025;-76
2023/09/04 03:58:58;;;;;;;8.30;6.07;;;;;;;;;;5051424;28;20021;-76
2023/09/04 04:01:24;;;;;;;9.48;6.05;;;;;;;;;;5051104;28;20080;-76
2023/09/04 04:03:51;;;;;;;8.52;6.10;;;;;;;;;;5051162;28;20031;-76
2023/09/04 04:06:17;;;;;;;8.68;5.60;;;;;;;;;;5048657;28;20018;-76
2023/09/04 04:08:47;;;;;;;6.85;5.50;;;;;;;;;;5040463;28;20025;-76
2023/09/04 04:11:13;;;;;;;8.65;5.65;;;;;;;;;;5051130;28;20107;-77
2023/09/04 04:13:40;;;;;;;9.57;6.88;;;;;;;;;;5050965;28;20017;-76
2023/09/04 04:16:06;;;;;;;10.38;6.30;;;;;;;;;;5051027;28;20055;-76
2023/09/04 04:18:32;;;;;;;13.38;7.63;;;;;;;;;;5050254;28;20052;-77
2023/09/04 04:20:58;;;;;;;11.15;7.43;;;;;;;;;;5050923;28;20091;-76
2023/09/04 04:23:24;;;;;;;10.05;6.78;;;;;;;;;;5051021;28;20036;-76
2023/09/04 04:25:51;;;;;;;9.60;6.78;;;;;;;;;;5051071;28;20533;-76
2023/09/04 04:28:20;;;;;;;8.50;5.47;;;;;;;;;;5050858;28;20030;-76
2023/09/04 04:30:46;;;;;;;7.10;5.13;;;;;;;;;;5050909;28;20021;-76
2023/09/04 04:33:13;;;;;;;5.70;4.55;;;;;;;;;;5050956;28;20055;-76
2023/09/04 04:35:41;;;;;;;6.43;5.15;;;;;;;;;;5050810;28;20017;-76
2023/09/04 04:38:07;;;;;;;6.63;5.38;;;;;;;;;;5050774;28;20060;-76
2023/09/04 04:40:33;;;;;;;7.07;5.50;;;;;;;;;;5049322;28;20029;-76
2023/09/04 04:42:59;;;;;;;8.65;6.32;;;;;;;;;;5050929;28;20422;-76
2023/09/04 04:45:25;;;;;;;7.35;5.72;;;;;;;;;;5053846;28;20460;-77
2023/09/04 04:47:51;;;;;;;8.68;5.85;;;;;;;;;;5054303;28;20383;-77
2023/09/04 04:50:17;;;;;;;7.88;6.57;;;;;;;;;;5054794;28;20033;-77
2023/09/04 04:52:43;;;;;;;8.23;6.30;;;;;;;;;;5054699;28;20025;-77
2023/09/04 04:55:09;;;;;;;9.00;6.18;;;;;;;;;;5054663;28;20119;-77
2023/09/04 04:57:35;;;;;;;10.00;6.68;;;;;;;;;;5054252;28;20092;-76
2023/09/04 05:00:06;;;;;;;9.35;6.35;;;;;;;;;;5052246;28;20017;-76
2023/09/04 05:02:33;;;;;;;8.07;6.38;;;;;;;;;;5054489;28;20021;-76
2023/09/04 05:04:59;;;;;;;8.23;5.85;;;;;;;;;;5054235;28;20040;-76
2023/09/04 05:07:25;;;;;;;10.63;7.28;;;;;;;;;;5054791;28;20040;-76
2023/09/04 05:09:54;;;;;;;9.27;6.68;;;;;;;;;;5054030;28;20029;-76
2023/09/04 05:12:20;;;;;;;8.75;6.60;;;;;;;;;;5054442;28;20028;-76
2023/09/04 05:14:46;;;;;;;8.48;6.63;;;;;;;;;;5054259;28;20078;-75
2023/09/04 05:17:12;;;;;;;10.00;7.55;;;;;;;;;;5054027;28;20021;-76
2023/09/04 05:19:38;;;;;;;10.82;6.78;;;;;;;;;;5054137;28;20044;-76
2023/09/04 05:22:05;;;;;;;9.32;7.07;;;;;;;;;;5054163;28;20040;-76
2023/09/04 05:24:30;;;;;;;10.10;7.25;;;;;;;;;;5054071;28;20029;-75
2023/09/04 05:26:57;;;;;;;9.48;7.38;;;;;;;;;;5054137;28;20078;-75
2023/09/04 05:29:23;;;;;;;10.75;6.95;;;;;;;;;;5053947;28;20025;-75
2023/09/04 05:31:52;;;;;;;12.23;7.93;;;;;;;;;;5054080;28;20490;-75
2023/09/04 05:34:19;;;;;;;10.95;7.50;;;;;;;;;;5054009;28;20036;-75
2023/09/04 05:36:44;;;;;;;8.38;6.88;;;;;;;;;;5053791;28;20036;-75
2023/09/04 05:39:10;;;;;;;9.63;6.32;;;;;;;;;;5053902;28;20029;-75
2023/09/04 05:41:37;;;;;;;8.90;6.50;;;;;;;;;;5053617;28;20025;-75
2023/09/04 05:44:04;;;;;;;8.95;6.28;;;;;;;;;;5053696;28;20021;-75
2023/09/04 05:46:30;;;;;;;8.77;6.40;;;;;;;;;;5053544;28;20024;-75
2023/09/04 05:48:56;;;;;;;10.88;7.00;;;;;;;;;;5053557;28;20033;-76
2023/09/04 05:51:22;;;;;;;13.25;8.52;;;;;;;;;;5053346;28;20132;-76
2023/09/04 05:53:48;;;;;;;12.75;8.77;;;;;;;;;;5047961;28;20036;-75
2023/09/04 05:56:15;;;;;;;13.75;9.32;;;;;;;;;;5035974;28;20029;-75
2023/09/04 05:58:51;;;;;;;13.52;9.52;;;;;;;;;;5039752;28;20021;-76
2023/09/04 06:01:18;;;;;;;14.30;9.70;;;;;;;;;;5053169;28;20174;-75
2023/09/04 06:03:45;;;;;;;12.95;9.68;;;;;;;;;;5053540;28;20040;-76
2023/09/04 06:06:11;;;;;;;15.77;10.73;;;;;;;;;;5052927;28;20020;-75
2023/09/04 06:08:37;;;;;;;16.08;9.90;;;;;;;;;;5053140;28;20122;-76
2023/09/04 06:11:04;;;;;;;14.60;9.82;;;;;;;;;;5053048;28;20021;-75
2023/09/04 06:13:30;;;;;;;16.92;11.05;;;;;;;;;;5053223;28;20017;-76
2023/09/04 06:15:56;;;;;;;15.07;10.55;;;;;;;;;;5039878;28;20029;-75
2023/09/04 06:18:23;;;;;;;17.75;11.05;;;;;;;;;;5052828;28;20032;-75
2023/09/04 06:20:50;;;;;;;19.02;11.68;;;;;;;;;;5052775;28;20049;-75
2023/09/04 06:23:16;;;;;;;21.02;10.90;;;;;;;;;;5053087;28;20452;-75
2023/09/04 06:25:42;;;;;;;18.58;11.93;;;;;;;;;;5055527;28;20539;-76
2023/09/04 06:28:12;;;;;;;15.38;11.00;;;;;;;;;;5073029;28;20500;-76
2023/09/04 06:30:38;;;;;;;16.92;11.23;;;;;;;;;;5072931;28;20029;-76
2023/09/04 06:33:04;;;;;;;18.35;11.40;;;;;;;;;;5072770;28;20467;-76
2023/09/04 06:35:30;;;;;;;17.17;11.70;;;;;;;;;;5069460;28;20025;-75
2023/09/04 06:37:57;;;;;;;18.38;11.95;;;;;;;;;;5052914;28;20049;-76
2023/09/04 06:40:23;;;;;;;19.15;11.75;;;;;;;;;;5069657;28;20092;-75
2023/09/04 06:42:49;;;;;;;19.63;12.52;;;;;;;;;;5072423;28;20055;-76
2023/09/04 06:45:16;;;;;;;18.80;12.75;;;;;;;;;;5068729;28;20033;-76
2023/09/04 06:47:42;;;;;;;20.80;13.10;;;;;;;;;;5052577;28;20452;-76
2023/09/04 06:50:08;;;;;;;21.20;13.98;;;;;;;;;;5052966;28;20456;-76
2023/09/04 06:52:35;;;;;;;18.35;13.57;;;;;;;;;;5052279;28;20518;-76
2023/09/04 06:55:01;;;;;;;15.43;11.30;;;;;;;;;;5052311;28;20070;-76
2023/09/04 06:57:27;;;;;;;14.68;10.55;;;;;;;;;;5052086;28;20033;-76
2023/09/04 06:59:53;;;;;;;10.68;9.07;;;;;;;;;;5052121;28;20029;-76
2023/09/04 07:02:19;;;;;;;9.85;8.30;;;;;;;;;;5052106;28;20068;-76
2023/09/04 07:04:46;;;;;;;10.05;8.80;;;;;;;;;;5052229;28;20029;-76
2023/09/04 07:07:12;;;;;;;8.80;7.78;;;;;;;;;;5051549;28;20013;-77
2023/09/04 07:09:38;;;;;;;9.15;7.20;;;;;;;;;;5051928;28;20083;-77
2023/09/04 07:12:04;;;;;;;7.55;6.75;;;;;;;;;;5051878;28;20060;-77
2023/09/04 07:14:31;;;;;;;7.70;6.78;;;;;;;;;;5052174;28;20021;-76
2023/09/04 07:16:57;;;;;;;9.63;6.88;;;;;;;;;;5051970;28;20021;-77
2023/09/04 07:19:23;;;;;;;8.13;6.97;;;;;;;;;;5052381;28;20520;-78
2023/09/04 07:21:49;;;;;;;6.97;6.28;;;;;;;;;;5053727;28;20033;-78
2023/09/04 07:24:15;;;;;;;7.68;6.90;;;;;;;;;;5054056;28;20025;-78
2023/09/04 07:26:41;;;;;;;8.98;6.70;;;;;;;;;;5054104;28;20052;-78
2023/09/04 07:29:07;;;;;;;6.55;5.95;;;;;;;;;;5054105;28;20602;-78
2023/09/04 07:31:33;;;;;;;6.80;6.20;;;;;;;;;;5050442;28;20086;-78
2023/09/04 07:33:59;;;;;;;6.43;5.70;;;;;;;;;;5031767;28;20021;-78
2023/09/04 07:36:25;;;;;;;6.88;5.97;;;;;;;;;;5053343;28;20029;-79
2023/09/04 07:38:51;;;;;;;6.32;5.70;;;;;;;;;;5042355;28;20454;-78
2023/09/04 07:41:17;;;;;;;7.13;6.50;;;;;;;;;;5045651;28;20475;-78
2023/09/04 07:43:43;;;;;;;6.47;5.97;;;;;;;;;;5051422;28;20029;-78
2023/09/04 07:46:09;;;;;;;8.07;5.53;;;;;;;;;;5036507;28;20512;-79
2023/09/04 07:48:35;;;;;;;7.63;6.10;;;;;;;;;;5054191;28;20021;-79
2023/09/04 07:51:03;;;;;;;6.00;5.40;;;;;;;;;;5054974;28;20100;-78
2023/09/04 07:53:29;;;;;;;6.40;5.80;;;;;;;;;;5055637;28;20052;-79
2023/09/04 07:55:55;;;;;;;5.90;5.28;;;;;;;;;;5055598;28;20025;-79
2023/09/04 07:58:21;;;;;;;6.32;4.97;;;;;;;;;;5047098;28;20029;-79
2023/09/04 08:00:47;;;;;;;5.32;4.35;;;;;;;;;;5035485;28;20044;-79
2023/09/04 08:03:14;;;;;;;5.20;4.70;;;;;;;;;;5057416;28;20031;-79
2023/09/04 08:05:40;;;;;;;4.80;4.40;;;;;;;;;;5053256;28;20028;-77
2023/09/04 08:08:10;;;;;;;5.10;4.60;;;;;;;;;;5052147;28;20083;-78
2023/09/04 08:10:39;;;;;;;4.60;4.20;;;;;;;;;;5052130;28;20372;-77
2023/09/04 08:13:05;;;;;;;;;;;;;;;;;;5052888;28;20021;-77
2023/09/04 08:15:31;;;;;;;4.50;3.90;;;;;;;;;;5052080;28;19955;-77
2023/09/04 08:17:57;;;;;;;4.55;4.15;;;;;;;;;;5052357;28;20033;-78
2023/09/04 08:20:23;;;;;;;4.50;4.15;;;;;;;;;;5055826;28;20049;-78
2023/09/04 08:22:49;;;;;;;5.15;4.75;;;;;;;;;;5056218;28;20352;-78
2023/09/04 08:25:15;;;;;;;5.85;5.35;;;;;;;;;;5056043;28;20494;-78
2023/09/04 08:27:41;;;;;;;5.75;5.20;;;;;;;;;;5055968;28;20094;-78
2023/09/04 08:30:08;;;;;;;6.53;4.93;;;;;;;;;;5055824;28;20017;-78
2023/09/04 08:32:34;;;;;;;4.90;4.40;;;;;;;;;;5037704;28;20475;-77
2023/09/04 08:34:59;;;;;;;5.32;4.07;;;;;;;;;;5055823;28;20111;-77
2023/09/04 08:37:25;;;;;;;4.82;4.30;;;;;;;;;;5055858;28;20028;-78
2023/09/04 08:39:51;;;;;;;4.93;4.43;;;;;;;;;;5055738;28;20032;-77
2023/09/04 08:42:18;;;;;;;5.55;4.05;;;;;;;;;;5055708;28;20114;-77
2023/09/04 08:44:44;;;;;;;4.22;3.92;;;;;;;;;;5055624;28;20495;-78
2023/09/04 08:47:12;;;;;;;4.13;3.72;;;;;;;;;;5050682;28;20021;-78
2023/09/04 08:49:38;;;;;;;3.47;3.17;;;;;;;;;;5048234;28;20539;-77
2023/09/04 08:52:05;;;;;;;4.05;3.63;;;;;;;;;;5046567;28;20029;-77
2023/09/04 08:54:40;;;;;;;4.07;3.67;;;;;;;;;;5055490;28;20116;-78
2023/09/04 08:57:07;;;;;;;4.15;3.75;;;;;;;;;;5017693;28;20080;-78
2023/09/04 08:59:33;;;;;;;3.90;3.53;;;;;;;;;;5053299;28;20021;-77
2023/09/04 09:02:03;;;;;;;3.58;3.28;;;;;;;;;;5057742;28;20048;-78
2023/09/04 09:04:30;;;;;;;3.67;3.38;;;;;;;;;;5057372;28;20460;-78
2023/09/04 09:06:56;;;;;;;4.05;3.72;;;;;;;;;;5056724;28;20036;-78
2023/09/04 09:09:23;;;;;;;4.13;3.72;;;;;;;;;;5057063;28;20028;-78
2023/09/04 09:11:53;;;;;;;4.10;3.70;;;;;;;;;;5057372;28;20067;-78
2023/09/04 09:14:19;;;;;;;4.15;3.85;;;;;;;;;;5056777;28;20021;-78
2023/09/04 09:16:45;;;;;;;4.55;4.15;;;;;;;;;;5056231;28;20108;-78
2023/09/04 09:19:13;;;;;;;4.50;4.03;;;;;;;;;;5056386;28;20081;-78
2023/09/04 09:21:39;;;;;;;4.47;3.53;;;;;;;;;;5055306;28;20025;-78
2023/09/04 09:24:18;;;;;;;3.78;3.47;;;;;;;;;;5056096;28;20032;-78
2023/09/04 09:26:46;;;;;;;3.97;3.65;;;;;;;;;;5055326;28;20025;-78
2023/09/04 09:29:13;;;;;;;4.47;3.70;;;;;;;;;;5055837;28;20017;-78
2023/09/04 09:31:41;;;;;;;3.78;3.47;;;;;;;;;;5055265;28;20020;-78
2023/09/04 09:34:07;;;;;;;4.07;3.17;;;;;;;;;;5054299;28;20017;-78
2023/09/04 09:36:34;;;;;;;3.58;3.20;;;;;;;;;;5053783;28;20017;-78
2023/09/04 09:39:00;;;;;;;3.22;2.90;;;;;;;;;;5053841;28;20045;-78
2023/09/04 09:41:26;;;;;;;2.97;2.72;;;;;;;;;;5053959;28;20071;-78
2023/09/04 09:43:52;;;;;;;3.42;2.70;;;;;;;;;;5053794;28;20036;-78
2023/09/04 09:46:18;;;;;;;3.50;3.20;;;;;;;;;;5053605;28;20108;-78
2023/09/04 09:48:45;;;;;;;3.85;3.22;;;;;;;;;;5053326;28;20035;-78
2023/09/04 09:51:12;;;;;;;3.40;3.10;;;;;;;;;;5053579;28;20025;-78
2023/09/04 09:53:51;;;;;;;2.80;2.60;;;;;;;;;;5053450;28;20025;-78
2023/09/04 09:56:17;;;;;;;;;;;;;;;;;;5053875;28;20388;-78
2023/09/04 09:58:45;;;;;;;3.25;2.75;;;;;;;;;;5054458;28;19976;-78
2023/09/04 10:01:12;;;;;;;3.13;2.88;;;;;;;;;;5054651;28;20024;-78
2023/09/04 10:03:38;;;;;;;3.10;2.88;;;;;;;;;;5053476;28;20068;-78
2023/09/04 10:06:04;;;;;;;3.00;2.80;;;;;;;;;;5054056;28;20083;-78
2023/09/04 10:08:36;;;;;;;3.35;2.85;;;;;;;;;;5054663;28;20021;-78
2023/09/04 10:11:06;;;;;;;2.63;2.42;;;;;;;;;;5035731;28;20063;-78
2023/09/04 10:13:35;;;;;;;2.83;2.30;;;;;;;;;;5053822;28;20029;-78
2023/09/04 10:16:03;;;;;;;3.13;2.40;;;;;;;;;;5054054;28;20017;-78
2023/09/04 10:21:09;;;;;;;3.00;2.70;;;;;;;;;;5081819;27;1346898;-75
2023/09/04 10:23:43;;;;;;;3.05;2.75;;;;;;;;;;5109678;28;20272;-75
2023/09/04 10:26:12;;;;;;;3.92;3.63;;;;;;;;;;5106052;28;20036;-75
2023/09/04 10:28:39;;;;;;;;;;;;;;;;;;5110053;28;20089;-75
2023/09/04 10:31:05;;;;;;;3.15;2.85;;;;;;;;;;5109712;28;19998;-75
2023/09/04 10:33:31;;;;;;;2.60;2.40;;;;;;;;;;5109859;28;20032;-75
2023/09/04 10:35:58;;;;;;;3.08;2.50;;;;;;;;;;5109292;28;20070;-75
2023/09/04 10:38:24;;;;;;;2.55;2.35;;;;;;;;;;5109139;28;20028;-75
2023/09/04 10:40:51;;;;;;;2.38;2.17;;;;;;;;;;5109029;28;20028;-75
2023/09/04 10:43:17;;;;;;;2.55;2.20;;;;;;;;;;5109046;28;20027;-75
2023/09/04 10:46:03;;;;;;;2.90;2.08;;;;;;;;;;5109484;28;20024;-75
2023/09/04 10:48:42;;;;;;;3.33;2.60;;;;;;;;;;5109562;28;20066;-75
2023/09/04 10:51:27;;;;;;;3.50;2.72;;;;;;;;;;5109667;28;20061;-75
2023/09/04 10:53:54;;;;;;;2.95;2.72;;;;;;;;;;5109489;28;20066;-75
2023/09/04 10:56:20;;;;;;;3.70;2.65;;;;;;;;;;5108809;28;20066;-75
2023/09/04 10:58:58;;;;;;;4.32;2.88;;;;;;;;;;5106797;28;20024;-75
2023/09/04 11:01:37;;;;;;;2.40;2.20;;;;;;;;;;5104607;28;20042;-75
2023/09/04 11:04:04;;;;;;;4.07;2.47;;;;;;;;;;5075612;28;20067;-75
2023/09/04 11:06:33;;;;;;;3.78;2.80;;;;;;;;;;5068327;28;20055;-75
2023/09/04 11:09:00;;;;;;;3.05;2.40;;;;;;;;;;5068175;28;20108;-75
2023/09/04 11:11:27;;;;;;;3.28;2.80;;;;;;;;;;5068251;28;20039;-75
2023/09/04 11:13:57;;;;;;;2.45;2.25;;;;;;;;;;5068336;28;20028;-75
2023/09/04 11:16:25;;;;;;;3.47;2.10;;;;;;;;;;5067130;28;20070;-75
2023/09/04 11:19:02;;;;;;;2.97;2.67;;;;;;;;;;5069283;28;20021;-75
2023/09/04 11:21:32;;;;;;;2.42;2.22;;;;;;;;;;5088772;28;20016;-75
2023/09/04 11:23:59;;;;;;;3.20;2.20;;;;;;;;;;5088393;28;20374;-75
2023/09/04 11:26:25;;;;;;;2.15;1.98;;;;;;;;;;5088316;28;20107;-75
2023/09/04 11:28:51;;;;;;;2.42;2.13;;;;;;;;;;5088072;28;20419;-75
2023/09/04 11:31:17;;;;;;;2.97;2.67;;;;;;;;;;5081794;28;20032;-75
2023/09/04 11:33:48;;;;;;;3.30;3.00;;;;;;;;;;5074698;28;20067;-75
2023/09/04 11:36:14;;;;;;;2.45;2.10;;;;;;;;;;5075100;28;20470;-75
2023/09/04 11:38:40;;;;;;;2.85;2.58;;;;;;;;;;5074608;28;20057;-75
2023/09/04 11:41:16;;;;;;;2.90;2.60;;;;;;;;;;5074529;28;20040;-75
2023/09/04 11:43:42;;;;;;;5.15;3.00;;;;;;;;;;5074643;28;20036;-75
2023/09/04 11:46:09;;;;;;;2.53;2.33;;;;;;;;;;5074868;28;20516;-75
2023/09/04 11:48:35;;;;;;;3.25;3.03;;;;;;;;;;5056296;28;20025;-75
2023/09/04 11:51:04;;;;;;;3.95;3.53;;;;;;;;;;5074245;28;20103;-75
2023/09/04 11:53:30;;;;;;;4.22;3.47;;;;;;;;;;5074687;28;20059;-75
2023/09/04 11:55:57;;;;;;;3.33;3.03;;;;;;;;;;5074263;28;20031;-75
2023/09/04 11:58:23;;;;;;;3.15;2.72;;;;;;;;;;5058400;28;20481;-75
2023/09/04 12:00:50;;;;;;;2.88;2.60;;;;;;;;;;5085389;28;20479;-75
2023/09/04 12:03:16;;;;;;;2.78;2.53;;;;;;;;;;5104515;28;20047;-75
2023/09/04 12:05:42;;;;;;;3.30;2.72;;;;;;;;;;5106690;28;20094;-75
2023/09/04 12:08:08;;;;;;;4.18;2.47;;;;;;;;;;5092669;28;20493;-75
2023/09/04 12:10:35;;;;;;;3.08;2.67;;;;;;;;;;5087291;28;20059;-75
2023/09/04 12:13:02;;;;;;;2.65;2.45;;;;;;;;;;5092143;28;20450;-75
2023/09/04 12:15:28;;;;;;;3.47;2.58;;;;;;;;;;5073947;28;20020;-75
2023/09/04 12:17:58;;;;;;;3.17;2.30;;;;;;;;;;5114727;28;20023;-75
2023/09/04 12:20:24;;;;;;;2.30;2.10;;;;;;;;;;5114569;28;20065;-75
2023/09/04 12:22:56;;;;;;;4.03;2.03;;;;;;;;;;5100181;28;20103;-75
2023/09/04 12:25:25;;;;;;;2.63;2.20;;;;;;;;;;5083774;28;20059;-75
2023/09/04 12:27:51;;;;;;;3.00;2.58;;;;;;;;;;5081832;28;20074;-75
2023/09/04 12:30:17;;;;;;;4.30;2.38;;;;;;;;;;5073954;28;20020;-75
2023/09/04 12:32:43;;;;;;;2.55;2.35;;;;;;;;;;5072575;28;20035;-75
2023/09/04 12:35:09;;;;;;;2.60;2.38;;;;;;;;;;5075739;28;20089;-75
2023/09/04 12:37:36;;;;;;;2.30;2.10;;;;;;;;;;5093860;28;20054;-75
2023/09/04 12:40:08;;;;;;;3.40;2.67;;;;;;;;;;5092751;28;20119;-75
2023/09/04 12:42:34;;;;;;;2.92;2.60;;;;;;;;;;5091367;28;20513;-75
2023/09/04 12:45:00;;;;;;;3.83;2.25;;;;;;;;;;5092750;28;20020;-75
2023/09/04 12:47:26;;;;;;;3.13;2.10;;;;;;;;;;5092444;28;20031;-75
2023/09/04 12:49:52;;;;;;;2.40;2.10;;;;;;;;;;5091779;28;20028;-75
2023/09/04 12:52:18;;;;;;;3.00;2.28;;;;;;;;;;5092084;28;20024;-75
2023/09/04 12:54:45;;;;;;;2.20;2.05;;;;;;;;;;5093247;28;20035;-74
2023/09/04 12:57:11;;;;;;;3.33;2.10;;;;;;;;;;5093634;28;20035;-75
2023/09/04 12:59:37;;;;;;;2.75;2.10;;;;;;;;;;5093158;28;20040;-74
2023/09/04 13:02:03;;;;;;;2.47;1.90;;;;;;;;;;5093566;28;20454;-74
2023/09/04 13:04:29;;;;;;;2.92;2.20;;;;;;;;;;5093253;28;20051;-75
2023/09/04 13:06:55;;;;;;;2.28;2.08;;;;;;;;;;5075072;28;20643;-75
2023/09/04 13:09:21;;;;;;;2.35;2.15;;;;;;;;;;5074976;28;20028;-75
2023/09/04 13:11:47;;;;;;;2.42;1.90;;;;;;;;;;5093395;28;20032;-75
2023/09/04 13:14:13;;;;;;;3.42;2.10;;;;;;;;;;5093485;28;20421;-74
2023/09/04 13:16:39;;;;;;;1.98;1.77;;;;;;;;;;5092953;28;20481;-74
2023/09/04 13:19:05;;;;;;;2.65;1.73;;;;;;;;;;5092025;28;20048;-74
2023/09/04 13:21:31;;;;;;;2.72;2.00;;;;;;;;;;5074626;28;20039;-75
2023/09/04 13:23:57;;;;;;;2.97;2.03;;;;;;;;;;5092861;28;20460;-75
2023/09/04 13:26:23;;;;;;;1.98;1.65;;;;;;;;;;5092925;28;20481;-75
2023/09/04 13:28:49;;;;;;;2.05;1.80;;;;;;;;;;5092615;28;20032;-75
2023/09/04 13:31:18;;;;;;;2.25;2.05;;;;;;;;;;5092581;28;20031;-75
2023/09/04 13:33:44;;;;;;;3.27;2.00;;;;;;;;;;5092906;28;20028;-74
2023/09/04 13:36:10;;;;;;;3.33;1.90;;;;;;;;;;5074722;28;20031;-74
2023/09/04 13:38:36;;;;;;;2.50;1.73;;;;;;;;;;5092688;28;20033;-74
2023/09/04 13:41:02;;;;;;;2.60;1.85;;;;;;;;;;5092782;28;20047;-74
2023/09/04 13:43:28;;;;;;;2.45;1.95;;;;;;;;;;5074804;28;20126;-74
2023/09/04 13:45:54;;;;;;;2.17;1.70;;;;;;;;;;5092564;28;20146;-74
2023/09/04 13:48:20;;;;;;;1.98;1.85;;;;;;;;;;5092022;28;20099;-74
2023/09/04 13:50:46;;;;;;;1.83;1.73;;;;;;;;;;5089271;28;20031;-74
2023/09/04 13:53:12;;;;;;;2.03;1.83;;;;;;;;;;5076171;28;20368;-74
2023/09/04 13:55:38;;;;;;;3.67;2.15;;;;;;;;;;5080822;28;20020;-74
2023/09/04 13:58:04;;;;;;;2.83;1.80;;;;;;;;;;5112617;28;20084;-74
2023/09/04 14:00:30;;;;;;;3.28;1.88;;;;;;;;;;5094447;28;20036;-75
2023/09/04 14:02:56;;;;;;;2.17;1.65;;;;;;;;;;5110669;28;20040;-74
2023/09/04 14:05:22;;;;;;;1.85;1.75;;;;;;;;;;5087195;28;20032;-75
2023/09/04 14:07:48;;;;;;;2.08;1.88;;;;;;;;;;5085373;28;20028;-74
2023/09/04 14:10:14;;;;;;;1.98;1.88;;;;;;;;;;5080040;28;20032;-74
2023/09/04 14:12:40;;;;;;;1.95;1.70;;;;;;;;;;5084807;28;20021;-75
2023/09/04 14:15:07;;;;;;;1.67;1.58;;;;;;;;;;5062578;28;20082;-74
2023/09/04 14:17:33;;;;;;;2.22;1.90;;;;;;;;;;5062715;28;20107;-74
2023/09/04 14:19:59;;;;;;;2.95;2.00;;;;;;;;;;5083270;28;20139;-74
2023/09/04 14:22:26;;;;;;;1.98;1.58;;;;;;;;;;5083509;28;20139;-74
2023/09/04 14:24:52;;;;;;;2.50;1.70;;;;;;;;;;5083050;28;20020;-74
2023/09/04 14:27:18;;;;;;;1.88;1.67;;;;;;;;;;5081542;28;20059;-74
2023/09/04 14:29:45;;;;;;;2.33;1.95;;;;;;;;;;5065249;28;20052;-74
2023/09/04 14:32:11;;;;;;;2.10;1.90;;;;;;;;;;5062132;28;20045;-74
2023/09/04 14:34:37;;;;;;;1.92;1.48;;;;;;;;;;5086019;28;20472;-74
2023/09/04 14:37:03;;;;;;;3.45;1.90;;;;;;;;;;5091775;28;20473;-74